Time;durP1;ratioP1;P1;durP2;ratioP2;P2;SDS_P1;SDS_P2;PMS_P1;PMS_P2;Temp;Humidity;BMP_temperature;BMP_pressure;BME280_temperature;BME280_humidity;BME280_pressure;Samples;Min_cycle;Max_cycle;Signal;HPM_P1;HPM_P2
2023/04/19 00:01:31;;;;;;;7.80;2.60;;;;;;;11.26;69.92;99145.55;78234;1295;3028657;-62
2023/04/19 00:03:58;;;;;;;10.00;2.90;;;;;;;11.25;70.18;99137.52;79594;1294;3013796;-60
2023/04/19 00:06:24;;;;;;;9.30;3.10;;;;;;;11.25;70.22;99137.17;79450;1291;3011611;-61
2023/04/19 00:08:52;;;;;;;8.40;2.80;;;;;;;11.26;70.23;99133.59;78330;1291;3050152;-59
2023/04/19 00:11:19;;;;;;;11.00;2.80;;;;;;;11.26;70.24;99127.96;79766;1292;3018932;-62
2023/04/19 00:13:48;;;;;;;14.20;3.40;;;;;;;11.23;70.61;99125.55;79623;1295;3013928;-59
2023/04/19 00:16:16;;;;;;;7.40;2.60;;;;;;;11.21;70.68;99124.61;78439;1294;3048960;-59
2023/04/19 00:18:42;;;;;;;15.00;3.20;;;;;;;11.16;71.54;99127.98;79684;1296;3012719;-61
2023/04/19 00:21:09;;;;;;;9.40;2.80;;;;;;;11.14;71.57;99132.00;79559;1295;3011646;-61
2023/04/19 00:23:37;;;;;;;7.60;1.60;;;;;;;11.15;71.62;99136.14;78311;1295;3028424;-61
2023/04/19 00:26:03;;;;;;;8.20;1.80;;;;;;;11.54;71.11;99135.48;79535;1295;3013637;-63
2023/04/19 00:28:30;;;;;;;11.90;2.70;;;;;;;12.19;68.98;99132.19;79500;1295;3011655;-59
2023/04/19 00:30:58;;;;;;;9.10;2.50;;;;;;;12.31;68.19;99128.00;78390;1295;3026416;-60
2023/04/19 00:33:25;;;;;;;6.40;2.40;;;;;;;12.23;68.37;99125.59;79528;1298;3013470;-60
2023/04/19 00:35:51;;;;;;;10.60;3.10;;;;;;;12.14;68.72;99118.49;79652;1294;3011980;-60
2023/04/19 00:38:21;;;;;;;9.10;3.00;;;;;;;12.04;68.89;99110.95;78355;1294;3052009;-57
2023/04/19 00:40:48;;;;;;;9.80;2.90;;;;;;;11.95;69.27;99110.91;79668;1291;3013040;-62
2023/04/19 00:43:18;;;;;;;9.20;2.50;;;;;;;11.86;69.04;99116.30;79548;1296;3011808;-62
2023/04/19 00:45:46;;;;;;;10.50;3.30;;;;;;;11.72;69.48;99111.98;78285;1297;3050533;-58
2023/04/19 00:48:13;;;;;;;7.00;2.50;;;;;;;11.57;70.57;99110.56;79589;1297;3013103;-61
2023/04/19 00:50:42;;;;;;;11.20;3.80;;;;;;;11.42;71.40;99112.65;79526;1291;3011971;-56
2023/04/19 00:53:10;;;;;;;11.00;3.10;;;;;;;11.32;71.92;99111.62;78377;1297;3051685;-59
2023/04/19 00:55:38;;;;;;;13.10;3.10;;;;;;;11.24;72.39;99107.98;79551;1294;3014220;-58
2023/04/19 00:58:06;;;;;;;6.90;3.40;;;;;;;11.20;72.58;99106.46;79553;1294;3011809;-61
2023/04/19 01:00:34;;;;;;;11.90;3.10;;;;;;;11.18;72.76;99103.44;78235;1298;3050615;-59
2023/04/19 01:03:01;;;;;;;10.00;2.90;;;;;;;11.12;73.20;99101.61;79592;1295;3013799;-60
2023/04/19 01:05:28;;;;;;;10.90;3.30;;;;;;;11.06;73.40;99103.40;79517;1292;3011835;-61
2023/04/19 01:07:55;;;;;;;8.90;2.60;;;;;;;11.02;73.92;99105.42;78359;1298;3051097;-60
2023/04/19 01:10:22;;;;;;;11.60;1.90;;;;;;;11.05;73.89;99106.15;79620;1295;3013252;-62
2023/04/19 01:12:50;;;;;;;6.30;2.10;;;;;;;11.58;72.54;99103.14;79787;1292;3011572;-60
2023/04/19 01:15:18;;;;;;;7.20;2.70;;;;;;;12.24;70.31;99094.08;78310;1297;3050637;-62
2023/04/19 01:17:45;;;;;;;13.00;2.70;;;;;;;12.41;68.93;99081.58;79560;1297;3013151;-58
2023/04/19 01:20:12;;;;;;;9.50;3.00;;;;;;;12.35;68.63;99072.00;79488;1297;3013207;-60
2023/04/19 01:22:40;;;;;;;10.50;2.70;;;;;;;12.19;68.48;99064.90;78383;1294;3026824;-58
2023/04/19 01:25:07;;;;;;;16.60;3.30;;;;;;;12.06;68.75;99068.33;79635;1292;3013507;-61
2023/04/19 01:27:35;;;;;;;14.20;3.00;;;;;;;11.79;69.41;99069.36;79514;1292;3011711;-57
2023/04/19 01:30:03;;;;;;;9.20;3.10;;;;;;;11.62;70.15;99065.66;78348;1295;3051782;-58
2023/04/19 01:32:30;;;;;;;7.90;3.30;;;;;;;11.47;70.83;99068.69;79691;1296;3013261;-60
2023/04/19 01:34:56;;;;;;;15.90;3.50;;;;;;;11.38;71.16;99068.55;79449;1291;3011441;-60
2023/04/19 01:37:24;;;;;;;9.90;3.10;;;;;;;11.40;71.01;99068.48;78342;1297;3051216;-60
2023/04/19 01:39:51;;;;;;;11.40;3.40;;;;;;;11.37;70.82;99067.42;79636;1295;3012745;-59
2023/04/19 01:42:18;;;;;;;17.90;4.40;;;;;;;11.25;71.43;99072.85;79514;1296;3011755;-61
2023/04/19 01:44:46;;;;;;;13.10;4.00;;;;;;;11.14;72.43;99077.79;78303;1297;3028409;-62
2023/04/19 01:47:12;;;;;;;10.80;3.90;;;;;;;11.10;72.36;99078.61;79557;1295;3013071;-61
2023/04/19 01:49:40;;;;;;;15.20;4.00;;;;;;;11.06;72.68;99082.56;79532;1297;3011628;-61
2023/04/19 01:52:08;;;;;;;15.50;4.10;;;;;;;11.04;72.46;99078.14;78335;1295;3051928;-61
2023/04/19 01:54:35;;;;;;;14.70;4.10;;;;;;;10.98;72.76;99072.78;79529;1297;3013140;-60
2023/04/19 01:57:01;;;;;;;15.30;4.40;;;;;;;10.93;72.89;99067.66;79523;1295;3011648;-59
2023/04/19 01:59:30;;;;;;;6.90;2.40;;;;;;;10.95;72.77;99066.86;78409;1295;3050110;-60
2023/04/19 02:01:56;;;;;;;9.60;2.50;;;;;;;11.46;71.89;99057.89;79544;1298;3018705;-59
2023/04/19 02:04:24;;;;;;;13.30;3.80;;;;;;;12.14;70.11;99053.34;79512;1295;3011479;-57
2023/04/19 02:06:52;;;;;;;11.80;3.30;;;;;;;12.26;68.82;99054.23;78290;1292;3050637;-59
2023/04/19 02:09:18;;;;;;;10.90;3.80;;;;;;;12.18;68.56;99054.67;79493;1297;3013080;-60
2023/04/19 02:11:45;;;;;;;13.30;3.70;;;;;;;12.02;68.81;99051.10;79506;1295;3011782;-60
2023/04/19 02:14:13;;;;;;;12.50;3.90;;;;;;;11.89;69.51;99048.81;78334;1295;3028298;-60
2023/04/19 02:16:40;;;;;;;12.30;4.00;;;;;;;11.85;69.45;99054.95;79456;1298;3014103;-59
2023/04/19 02:19:07;;;;;;;11.00;3.90;;;;;;;11.75;69.54;99053.91;79444;1297;3011578;-59
2023/04/19 02:21:35;;;;;;;11.60;4.20;;;;;;;11.65;69.80;99055.80;78331;1295;3028794;-59
2023/04/19 02:24:01;;;;;;;10.40;4.30;;;;;;;11.54;70.09;99053.83;79473;1297;3013528;-59
2023/04/19 02:26:28;;;;;;;14.00;4.30;;;;;;;11.46;70.43;99060.34;79519;1298;3013069;-60
2023/04/19 02:28:56;;;;;;;13.40;4.10;;;;;;;11.38;70.96;99064.59;78361;1295;3026756;-60
2023/04/19 02:31:23;;;;;;;13.90;4.40;;;;;;;11.36;70.84;99061.90;79547;1295;3013344;-62
2023/04/19 02:33:49;;;;;;;17.30;3.90;;;;;;;11.31;70.92;99066.11;79480;1295;3011732;-59
2023/04/19 02:36:17;;;;;;;12.60;3.40;;;;;;;11.24;71.32;99070.23;78341;1297;3028460;-64
2023/04/19 02:38:44;;;;;;;14.50;3.70;;;;;;;11.20;71.54;99078.78;79540;1295;3011913;-58
2023/04/19 02:41:10;;;;;;;20.10;4.40;;;;;;;11.15;71.31;99087.21;79509;1294;3014037;-60
2023/04/19 02:43:40;;;;;;;13.00;3.40;;;;;;;11.05;71.89;99090.46;78137;1295;3049696;-63
2023/04/19 02:46:06;;;;;;;13.00;3.90;;;;;;;11.02;72.12;99089.98;79271;1295;3013275;-61
2023/04/19 02:48:33;;;;;;;13.70;3.70;;;;;;;10.95;72.59;99082.09;79242;1292;3011616;-60
2023/04/19 02:51:02;;;;;;;14.40;3.80;;;;;;;10.98;72.66;99082.27;78141;1292;3026872;-58
2023/04/19 02:53:28;;;;;;;10.10;3.70;;;;;;;10.96;72.96;99083.74;79332;1291;3012875;-62
2023/04/19 02:55:55;;;;;;;11.00;1.80;;;;;;;10.98;73.25;99077.11;79291;1295;3013424;-61
2023/04/19 02:58:23;;;;;;;7.00;2.40;;;;;;;11.57;71.74;99075.79;78131;1298;3026234;-59
2023/04/19 03:01:05;;;;;;;13.20;3.60;;;;;;;12.26;69.71;99068.11;78348;1295;3052958;-61
2023/04/19 03:03:33;;;;;;;9.20;3.00;;;;;;;12.35;68.90;99066.02;79600;1295;3012942;-62
2023/04/19 03:05:59;;;;;;;18.40;3.40;;;;;;;12.22;68.57;99063.52;79469;1296;3011469;-64
2023/04/19 03:08:28;;;;;;;23.80;4.20;;;;;;;12.07;68.66;99064.20;78195;1292;3058039;-60
2023/04/19 03:10:54;;;;;;;13.70;3.80;;;;;;;11.88;69.10;99067.38;79660;1292;3012834;-59
2023/04/19 03:13:21;;;;;;;13.60;3.30;;;;;;;11.66;70.06;99062.44;79571;1296;3013849;-61
2023/04/19 03:15:49;;;;;;;13.40;2.90;;;;;;;11.57;70.41;99064.65;78349;1295;3052713;-59
2023/04/19 03:18:18;;;;;;;24.10;4.60;;;;;;;11.40;70.89;99070.93;79522;1297;3013474;-62
2023/04/19 03:20:44;;;;;;;18.20;3.90;;;;;;;11.28;71.29;99074.05;79550;1291;3011511;-58
2023/04/19 03:23:12;;;;;;;13.20;3.30;;;;;;;11.17;72.02;99072.00;78286;1298;3056487;-59
2023/04/19 03:25:39;;;;;;;16.80;4.00;;;;;;;11.20;71.57;99069.48;79542;1297;3013229;-62
2023/04/19 03:28:24;;;;;;;16.20;3.90;;;;;;;11.19;71.42;99068.31;78369;1295;3049806;-60
2023/04/19 03:31:12;;;;;;;15.90;3.20;;;;;;;11.19;71.53;99069.02;78340;1297;3053454;-59
2023/04/19 03:33:39;;;;;;;14.20;3.50;;;;;;;11.21;71.21;99067.32;79547;1292;3018577;-61
2023/04/19 03:36:06;;;;;;;14.50;4.10;;;;;;;11.14;71.88;99071.85;79731;1294;3011442;-57
2023/04/19 03:38:35;;;;;;;12.40;3.30;;;;;;;11.11;71.77;99071.49;78374;1297;3056679;-59
2023/04/19 03:41:02;;;;;;;15.50;3.40;;;;;;;11.14;71.88;99071.48;79662;1291;3013591;-60
2023/04/19 03:43:33;;;;;;;17.10;3.70;;;;;;;11.04;72.46;99074.06;78301;1295;3050759;-61
2023/04/19 03:46:00;;;;;;;12.30;3.20;;;;;;;11.01;72.80;99080.92;79510;1306;3013427;-60
2023/04/19 03:48:27;;;;;;;10.60;2.50;;;;;;;10.98;73.16;99079.91;79524;1297;3011795;-59
2023/04/19 03:50:55;;;;;;;10.70;2.70;;;;;;;11.57;72.01;99078.66;78232;1296;3027419;-59
2023/04/19 03:53:21;;;;;;;12.60;3.30;;;;;;;12.11;69.95;99074.11;79499;1297;3013607;-57
2023/04/19 03:55:48;;;;;;;13.80;3.00;;;;;;;12.27;69.20;99072.59;79467;1298;3011631;-60
2023/04/19 03:58:18;;;;;;;13.40;3.40;;;;;;;12.22;69.58;99072.66;78401;1297;3049727;-59
2023/04/19 04:00:54;;;;;;;16.40;3.60;;;;;;;12.05;69.96;99072.64;78156;1297;3052339;-61
2023/04/19 04:03:21;;;;;;;14.30;4.10;;;;;;;11.88;70.37;99072.09;79666;1295;3012957;-57
2023/04/19 04:05:47;;;;;;;23.90;4.10;;;;;;;11.82;70.41;99064.64;79452;1298;3011802;-60
2023/04/19 04:08:16;;;;;;;19.90;4.00;;;;;;;11.76;70.73;99065.23;78417;1295;3056348;-60
2023/04/19 04:10:42;;;;;;;14.40;4.10;;;;;;;11.63;71.66;99058.79;79452;1292;3012970;-61
2023/04/19 04:13:09;;;;;;;25.10;4.50;;;;;;;11.56;71.72;99055.23;79471;1291;3011805;-61
2023/04/19 04:15:48;;;;;;;30.80;4.80;;;;;;;11.41;72.28;99053.27;78288;1295;3053079;-59
2023/04/19 04:18:15;;;;;;;14.90;3.30;;;;;;;11.28;72.99;99048.40;79617;1294;3012976;-62
2023/04/19 04:20:45;;;;;;;22.10;4.00;;;;;;;11.16;73.49;99038.24;79595;1291;3011930;-58
2023/04/19 04:23:13;;;;;;;25.00;3.80;;;;;;;11.14;73.31;99037.30;78421;1297;3056335;-58
2023/04/19 04:25:43;;;;;;;24.30;3.50;;;;;;;11.11;73.26;99034.86;79604;1295;3012891;-61
2023/04/19 04:28:13;;;;;;;23.30;3.90;;;;;;;11.09;73.51;99035.21;78369;1299;3052792;-62
2023/04/19 04:30:40;;;;;;;21.80;2.40;;;;;;;11.04;73.93;99036.29;79544;1296;3013221;-59
2023/04/19 04:33:10;;;;;;;20.30;2.70;;;;;;;11.53;72.83;99037.88;79568;1295;3013346;-63
2023/04/19 04:35:40;;;;;;;25.70;3.00;;;;;;;12.00;70.91;99033.70;78419;1297;3069007;-59
2023/04/19 04:38:12;;;;;;;17.20;3.40;;;;;;;12.17;70.60;99036.29;79514;1294;3011627;-62
2023/04/19 04:40:40;;;;;;;26.10;3.50;;;;;;;12.07;70.94;99040.20;78262;1297;3056933;-62
2023/04/19 04:43:07;;;;;;;24.30;3.90;;;;;;;11.86;72.04;99034.32;79614;1298;3015382;-60
2023/04/19 04:45:34;;;;;;;25.30;3.60;;;;;;;11.67;73.10;99029.72;79516;1297;3011409;-60
2023/04/19 04:48:03;;;;;;;34.70;4.80;;;;;;;11.42;74.42;99029.94;78466;1295;3052465;-60
2023/04/19 04:50:30;;;;;;;21.20;4.30;;;;;;;11.07;75.81;99028.83;79638;1297;3014709;-61
2023/04/19 04:52:57;;;;;;;23.60;4.10;;;;;;;10.99;76.49;99028.02;79658;1295;3011571;-62
2023/04/19 04:55:29;;;;;;;32.20;3.90;;;;;;;10.94;76.64;99024.48;78206;1305;3056516;-60
2023/04/19 04:57:56;;;;;;;21.00;4.50;;;;;;;10.89;77.29;99016.58;79278;1296;3013568;-63
2023/04/19 05:00:42;;;;;;;13.00;3.10;;;;;;;10.85;77.83;99020.03;78177;1298;3050716;-62
2023/04/19 05:03:09;;;;;;;23.50;3.30;;;;;;;11.51;75.90;99013.79;79429;1304;3013144;-61
2023/04/19 05:05:42;;;;;;;26.80;4.00;;;;;;;12.01;73.76;99013.75;78032;1293;3068815;-59
2023/04/19 05:08:09;;;;;;;27.10;3.90;;;;;;;12.18;72.52;99016.56;79242;1298;3011887;-61
2023/04/19 05:10:36;;;;;;;32.60;5.30;;;;;;;12.01;72.36;99018.11;79368;1296;3011875;-61
2023/04/19 05:13:04;;;;;;;29.30;4.70;;;;;;;11.89;73.26;99017.26;78189;1298;3053666;-64
2023/04/19 05:15:31;;;;;;;27.00;5.90;;;;;;;11.83;73.60;99015.06;79509;1304;3013635;-62
2023/04/19 05:17:58;;;;;;;35.30;6.30;;;;;;;11.68;74.48;99016.49;79609;1305;3011867;-65
2023/04/19 05:20:26;;;;;;;34.30;4.70;;;;;;;11.61;74.81;99012.98;78374;1295;3028126;-60
2023/04/19 05:23:02;;;;;;;39.60;7.10;;;;;;;11.52;75.18;99014.30;79023;1296;3011924;-62
2023/04/19 05:25:30;;;;;;;33.70;4.60;;;;;;;11.54;75.22;99006.45;79651;1291;3012872;-61
2023/04/19 05:27:57;;;;;;;32.50;5.50;;;;;;;11.59;75.26;98997.86;79616;1295;3011781;-60
2023/04/19 05:30:25;;;;;;;42.70;5.40;;;;;;;11.62;75.21;98995.72;78260;1295;3053194;-60
2023/04/19 05:32:52;;;;;;;19.60;3.60;;;;;;;11.62;75.43;98990.98;79474;1298;3021355;-61
2023/04/19 05:35:19;;;;;;;28.20;3.90;;;;;;;12.33;72.62;98991.59;79480;1295;3013485;-61
2023/04/19 05:37:47;;;;;;;28.90;3.90;;;;;;;12.99;69.84;98987.57;78442;1311;3026165;-61
2023/04/19 05:40:14;;;;;;;31.80;4.80;;;;;;;13.12;68.06;98986.20;79495;1292;3013298;-60
2023/04/19 05:42:42;;;;;;;29.00;4.50;;;;;;;13.02;67.66;98992.23;79468;1293;3011978;-62
2023/04/19 05:45:10;;;;;;;35.90;5.10;;;;;;;13.02;67.92;98997.01;78287;1291;3053806;-60
2023/04/19 05:47:37;;;;;;;38.00;6.00;;;;;;;12.91;67.70;98994.52;79617;1304;3018411;-62
2023/04/19 05:50:23;;;;;;;23.80;3.80;;;;;;;12.77;68.18;98998.05;78356;1297;3053677;-62
2023/04/19 05:53:20;;;;;;;26.00;4.90;;;;;;;12.81;67.87;99000.35;78230;1297;3069576;-60
2023/04/19 05:55:49;;;;;;;34.70;4.60;;;;;;;12.73;68.55;99004.52;79480;1293;3012998;-62
2023/04/19 05:58:17;;;;;;;35.20;4.30;;;;;;;12.73;68.48;99005.71;79624;1294;3011632;-62
2023/04/19 06:00:46;;;;;;;27.50;4.70;;;;;;;12.81;68.61;99008.14;78405;1298;3055183;-60
2023/04/19 06:03:13;;;;;;;36.30;4.80;;;;;;;12.84;68.44;99011.95;79465;1297;3012863;-61
2023/04/19 06:05:39;;;;;;;32.70;5.00;;;;;;;12.88;68.14;99011.80;79582;1296;3012151;-62
2023/04/19 06:08:08;;;;;;;43.70;4.40;;;;;;;12.92;67.91;99013.77;78242;1298;3068647;-59
2023/04/19 06:10:35;;;;;;;25.70;3.90;;;;;;;12.90;67.24;99013.75;79429;1298;3015470;-61
2023/04/19 06:13:02;;;;;;;25.50;3.50;;;;;;;12.80;66.83;99015.23;79533;1293;3011632;-59
2023/04/19 06:15:30;;;;;;;24.20;3.50;;;;;;;12.87;66.26;99015.60;78245;1297;3053023;-63
2023/04/19 06:17:57;;;;;;;19.10;4.20;;;;;;;12.76;66.98;99018.17;79484;1305;3013660;-61
2023/04/19 06:20:24;;;;;;;39.40;4.30;;;;;;;12.82;66.45;99023.00;79498;1294;3011913;-63
2023/04/19 06:22:51;;;;;;;32.40;3.60;;;;;;;12.77;66.79;99026.36;78491;1292;3025968;-62
2023/04/19 06:25:18;;;;;;;21.30;4.20;;;;;;;12.87;66.88;99029.08;79530;1292;3013048;-65
2023/04/19 06:27:45;;;;;;;34.00;4.30;;;;;;;12.95;66.17;99030.05;79673;1295;3011619;-61
2023/04/19 06:30:12;;;;;;;30.10;3.40;;;;;;;12.94;66.00;99031.92;78377;1294;3026004;-62
2023/04/19 06:32:39;;;;;;;27.60;3.50;;;;;;;13.04;65.56;99029.70;79777;1298;3018738;-61
2023/04/19 06:35:06;;;;;;;34.10;3.50;;;;;;;13.10;65.70;99028.05;79607;1298;3011932;-61
2023/04/19 06:37:34;;;;;;;25.80;3.40;;;;;;;13.19;65.48;99030.69;78342;1293;3026843;-61
2023/04/19 06:40:01;;;;;;;25.40;3.70;;;;;;;13.17;64.98;99027.12;79574;1292;3012932;-61
2023/04/19 06:42:27;;;;;;;24.20;3.70;;;;;;;13.20;65.57;99029.02;79589;1297;3012223;-60
2023/04/19 06:44:58;;;;;;;18.50;3.30;;;;;;;13.21;64.62;99036.71;78216;1298;3028095;-64
2023/04/19 06:47:25;;;;;;;28.60;3.80;;;;;;;13.23;64.42;99035.30;79564;1295;3011887;-61
2023/04/19 06:49:54;;;;;;;27.80;3.20;;;;;;;13.27;64.08;99040.48;79029;1295;3011588;-63
2023/04/19 06:52:20;;;;;;;25.40;5.30;;;;;;;13.25;63.98;99038.46;79493;1296;3013652;-61
2023/04/19 06:54:48;;;;;;;28.20;3.90;;;;;;;13.28;63.66;99047.08;79544;1292;3013035;-61
2023/04/19 06:57:16;;;;;;;27.00;3.20;;;;;;;13.30;63.68;99053.56;78315;1296;3026294;-61
2023/04/19 06:59:43;;;;;;;21.50;3.40;;;;;;;13.31;63.44;99062.44;79512;1296;3013755;-63
2023/04/19 07:02:09;;;;;;;25.00;3.30;;;;;;;13.30;63.71;99068.88;79496;1292;3011548;-60
2023/04/19 07:04:38;;;;;;;28.80;3.60;;;;;;;13.26;63.84;99059.47;78259;1297;3052307;-60
2023/04/19 07:07:04;;;;;;;17.30;3.20;;;;;;;13.30;63.92;99056.88;79605;1296;3018762;-62
2023/04/19 07:09:31;;;;;;;20.20;3.20;;;;;;;13.39;63.94;99054.95;79696;1296;3011904;-61
2023/04/19 07:12:00;;;;;;;26.20;3.10;;;;;;;13.51;64.15;99059.37;78300;1292;3026474;-62
2023/04/19 07:14:27;;;;;;;27.50;3.50;;;;;;;13.60;63.90;99062.83;79559;1294;3013231;-60
2023/04/19 07:16:53;;;;;;;36.30;4.00;;;;;;;13.74;63.57;99063.81;77801;1292;3011492;-62
2023/04/19 07:19:21;;;;;;;26.30;3.30;;;;;;;13.87;63.00;99060.86;78417;1296;3052525;-60
2023/04/19 07:21:49;;;;;;;35.70;5.20;;;;;;;14.00;62.63;99056.61;79885;1293;3013158;-63
2023/04/19 07:24:15;;;;;;;28.40;3.70;;;;;;;14.24;62.17;99054.52;79585;1292;3011987;-61
2023/04/19 07:26:43;;;;;;;28.70;3.60;;;;;;;14.43;60.97;99053.88;78333;1295;3056750;-62
2023/04/19 07:29:10;;;;;;;31.80;3.60;;;;;;;14.57;60.03;99055.16;79577;1292;3013033;-60
2023/04/19 07:31:36;;;;;;;21.50;3.80;;;;;;;14.69;59.70;99058.79;79498;1292;3011561;-60
2023/04/19 07:34:05;;;;;;;18.90;2.90;;;;;;;14.78;58.96;99054.51;78334;1295;3028831;-57
2023/04/19 07:36:33;;;;;;;26.10;3.30;;;;;;;14.86;58.65;99050.81;79620;1290;3013323;-60
2023/04/19 07:39:00;;;;;;;27.50;3.30;;;;;;;14.89;58.23;99051.30;79646;1292;3011773;-61
2023/04/19 07:41:28;;;;;;;21.50;3.20;;;;;;;14.89;58.27;99052.69;78402;1296;3056437;-61
2023/04/19 07:43:54;;;;;;;31.60;4.20;;;;;;;14.94;58.80;99049.96;79539;1294;3013119;-62
2023/04/19 07:46:21;;;;;;;23.50;4.20;;;;;;;15.02;58.38;99049.12;79551;1297;3011402;-63
2023/04/19 07:48:49;;;;;;;20.50;3.30;;;;;;;15.15;58.05;99046.71;78242;1295;3026090;-62
2023/04/19 07:51:16;;;;;;;23.20;3.30;;;;;;;15.31;58.14;99046.09;79681;1296;3020795;-61
2023/04/19 07:53:42;;;;;;;26.20;3.90;;;;;;;15.37;57.19;99037.42;79623;1295;3011900;-60
2023/04/19 07:56:10;;;;;;;24.10;4.30;;;;;;;15.47;57.10;99036.20;78272;1295;3028638;-60
2023/04/19 07:58:38;;;;;;;29.50;3.50;;;;;;;15.62;56.78;99030.70;79458;1293;3013050;-60
2023/04/19 08:01:04;;;;;;;22.50;3.60;;;;;;;15.68;56.29;99037.39;79459;1292;3011649;-61
2023/04/19 08:03:33;;;;;;;27.80;3.50;;;;;;;15.61;56.00;99036.73;78362;1297;3053468;-62
2023/04/19 08:06:01;;;;;;;35.60;4.80;;;;;;;15.55;56.16;99028.11;79585;1296;3012857;-62
2023/04/19 08:08:27;;;;;;;49.00;5.40;;;;;;;15.53;55.93;99029.69;79543;1293;3013244;-62
2023/04/19 08:10:55;;;;;;;29.80;4.00;;;;;;;15.53;55.95;99026.91;78234;1292;3056057;-60
2023/04/19 08:13:22;;;;;;;30.70;3.90;;;;;;;15.48;55.87;99018.84;79765;1292;3013174;-64
2023/04/19 08:15:48;;;;;;;28.20;4.30;;;;;;;15.58;55.80;99023.92;79483;1296;3011893;-61
2023/04/19 08:18:16;;;;;;;34.40;6.30;;;;;;;15.65;55.72;99022.16;78395;1296;3026678;-63
2023/04/19 08:20:43;;;;;;;26.00;6.80;;;;;;;15.73;55.74;99021.41;79494;1291;3012736;-61
2023/04/19 08:23:10;;;;;;;41.90;5.80;;;;;;;15.87;55.18;99027.05;79646;1293;3011995;-62
2023/04/19 08:25:38;;;;;;;21.60;4.00;;;;;;;15.99;55.03;99019.27;78557;1292;3028691;-62
2023/04/19 08:28:04;;;;;;;22.60;3.60;;;;;;;16.06;54.78;99010.58;79569;1292;3013671;-62
2023/04/19 08:30:31;;;;;;;19.50;4.00;;;;;;;16.11;54.38;99009.44;79564;1294;3011636;-62
2023/04/19 08:33:00;;;;;;;19.00;3.90;;;;;;;16.18;54.18;99012.15;78304;1297;3025700;-60
2023/04/19 08:35:26;;;;;;;24.30;4.30;;;;;;;16.17;53.67;99003.16;79582;1294;3015237;-59
2023/04/19 08:37:53;;;;;;;28.00;4.50;;;;;;;16.17;52.81;99009.77;79510;1294;3012596;-62
2023/04/19 08:41:12;;;;;;;31.70;4.00;;;;;;;16.29;53.23;99007.20;79997;1301;3012742;-61
2023/04/19 08:43:39;;;;;;;21.50;4.10;;;;;;;16.26;53.23;99005.58;78871;1300;3013011;-60
2023/04/19 08:46:05;;;;;;;26.80;4.00;;;;;;;16.24;53.34;99007.36;78676;1306;3011478;-61
2023/04/19 08:48:35;;;;;;;20.30;4.20;;;;;;;16.16;53.14;99003.88;77843;1308;3052768;-60
2023/04/19 08:51:02;;;;;;;26.70;4.40;;;;;;;16.20;53.39;98999.79;79175;1301;3014305;-64
2023/04/19 08:53:29;;;;;;;34.20;5.20;;;;;;;16.17;53.33;98996.80;77238;1301;3011473;-63
2023/04/19 08:56:00;;;;;;;30.70;5.90;;;;;;;16.26;53.66;99000.38;78023;1303;3049282;-61
2023/04/19 08:58:28;;;;;;;24.20;3.30;;;;;;;16.35;53.40;98997.45;79190;1304;3012998;-60
2023/04/19 09:00:57;;;;;;;28.10;3.80;;;;;;;16.34;52.54;98994.22;78022;1303;3050004;-63
2023/04/19 09:03:24;;;;;;;17.10;4.00;;;;;;;16.45;52.40;98990.36;79291;1304;3013544;-62
2023/04/19 09:05:51;;;;;;;21.30;3.70;;;;;;;16.65;52.39;98986.80;79217;1304;3011421;-62
2023/04/19 09:08:20;;;;;;;20.90;3.20;;;;;;;16.72;52.70;98987.92;77951;1303;3050295;-61
2023/04/19 09:10:56;;;;;;;29.60;3.80;;;;;;;16.87;52.39;98986.30;79250;1299;3013267;-63
2023/04/19 09:13:25;;;;;;;17.50;3.40;;;;;;;17.09;52.17;98981.95;77962;1296;3053940;-62
2023/04/19 09:15:52;;;;;;;29.90;4.20;;;;;;;17.35;51.10;98976.06;79388;1300;3013653;-61
2023/04/19 09:18:19;;;;;;;20.40;4.30;;;;;;;17.59;50.77;98976.30;79408;1294;3011733;-62
2023/04/19 09:20:47;;;;;;;15.30;3.90;;;;;;;17.86;49.95;98969.89;78160;1299;3068546;-61
2023/04/19 09:23:15;;;;;;;21.60;3.30;;;;;;;18.01;49.21;98967.35;79482;1295;3012802;-61
2023/04/19 09:26:03;;;;;;;38.50;4.40;;;;;;;18.24;48.70;98969.16;79503;1294;3012017;-61
2023/04/19 09:28:31;;;;;;;31.60;3.80;;;;;;;18.26;48.50;98970.34;78100;1298;3054080;-61
2023/04/19 09:30:57;;;;;;;25.90;4.70;;;;;;;18.30;48.15;98967.90;79319;1298;3018515;-61
2023/04/19 09:33:35;;;;;;;22.50;4.10;;;;;;;18.56;47.80;98971.48;79474;1297;3012765;-63
2023/04/19 09:36:03;;;;;;;28.10;3.70;;;;;;;18.75;47.95;98971.27;78077;1300;3068092;-63
2023/04/19 09:38:30;;;;;;;20.30;3.30;;;;;;;18.74;47.98;98968.95;79462;1295;3013812;-63
2023/04/19 09:41:07;;;;;;;21.60;3.00;;;;;;;18.83;47.54;98970.86;79232;1295;3011906;-62
2023/04/19 09:43:34;;;;;;;27.30;3.80;;;;;;;18.84;47.81;98967.39;78096;1298;3053894;-63
2023/04/19 09:46:01;;;;;;;17.80;3.00;;;;;;;18.84;47.77;98972.58;79339;1300;3013311;-61
2023/04/19 09:48:28;;;;;;;26.60;4.10;;;;;;;18.94;47.70;98971.84;79322;1295;3011707;-61
2023/04/19 09:50:56;;;;;;;13.70;3.00;;;;;;;18.96;47.02;98966.59;78216;1298;3028828;-63
2023/04/19 09:53:23;;;;;;;19.80;3.80;;;;;;;18.71;46.77;98969.63;79315;1300;3014719;-61
2023/04/19 09:55:50;;;;;;;33.60;3.60;;;;;;;18.63;46.87;98971.96;79436;1295;3011583;-61
2023/04/19 09:58:19;;;;;;;23.90;3.60;;;;;;;18.51;46.73;98970.42;78044;1299;3052627;-60
2023/04/19 10:00:47;;;;;;;19.20;2.90;;;;;;;18.39;46.61;98976.24;79420;1301;3013093;-63
2023/04/19 10:03:14;;;;;;;17.60;2.80;;;;;;;18.30;46.55;98974.61;79447;1299;3011642;-62
2023/04/19 10:05:43;;;;;;;27.20;3.70;;;;;;;18.11;46.57;98977.36;78180;1299;3068716;-61
2023/04/19 10:08:12;;;;;;;23.80;3.60;;;;;;;17.94;46.94;98977.25;79473;1297;3013226;-63
2023/04/19 10:10:41;;;;;;;27.70;4.40;;;;;;;17.85;47.13;98978.70;78151;1301;3049491;-62
2023/04/19 10:13:12;;;;;;;23.20;4.70;;;;;;;17.82;47.70;98981.98;79416;1308;3013771;-60
2023/04/19 10:15:41;;;;;;;30.10;4.10;;;;;;;17.92;47.89;98985.39;78252;1299;3050273;-61
2023/04/19 10:18:08;;;;;;;36.40;3.90;;;;;;;18.18;47.60;98984.34;79207;1304;3013265;-63
2023/04/19 10:20:42;;;;;;;22.90;3.50;;;;;;;18.34;47.43;98986.27;79174;1296;3013585;-61
2023/04/19 10:23:09;;;;;;;32.20;4.10;;;;;;;18.42;46.66;98982.98;78178;1302;3057229;-61
2023/04/19 10:25:37;;;;;;;36.60;5.70;;;;;;;18.60;46.70;98982.44;79391;1299;3013256;-62
2023/04/19 10:28:03;;;;;;;35.70;4.10;;;;;;;18.79;46.54;98978.86;79414;1298;3011858;-60
2023/04/19 10:30:32;;;;;;;18.90;3.40;;;;;;;18.88;46.25;98983.88;78213;1298;3053343;-63
2023/04/19 10:32:59;;;;;;;26.80;3.50;;;;;;;18.97;45.98;98981.50;79341;1299;3013283;-61
2023/04/19 10:35:30;;;;;;;39.00;5.20;;;;;;;18.73;46.24;98986.77;79325;1301;3013198;-61
2023/04/19 10:38:08;;;;;;;43.80;4.30;;;;;;;18.52;46.46;98988.15;78052;1295;3054263;-61
2023/04/19 10:40:53;;;;;;;17.90;3.40;;;;;;;18.34;46.57;98982.06;78084;1301;3049494;-62
2023/04/19 10:43:23;;;;;;;22.40;3.60;;;;;;;18.15;46.59;98989.76;78243;1300;3053400;-62
2023/04/19 10:45:49;;;;;;;24.10;3.00;;;;;;;18.09;47.50;98986.98;79444;1298;3013345;-62
2023/04/19 10:48:26;;;;;;;25.90;3.80;;;;;;;18.00;47.76;98985.54;79572;1295;3011419;-61
2023/04/19 10:51:17;;;;;;;22.60;3.60;;;;;;;17.80;48.29;98989.64;78219;1298;3068401;-60
2023/04/19 10:53:46;;;;;;;16.00;2.80;;;;;;;17.83;48.82;98991.66;78145;1300;3051323;-62
2023/04/19 10:56:14;;;;;;;23.10;3.90;;;;;;;17.86;49.02;98991.56;79383;1296;3013039;-61
2023/04/19 10:58:59;;;;;;;20.30;3.00;;;;;;;17.73;48.97;98994.90;79380;1299;3011669;-62
2023/04/19 11:01:39;;;;;;;24.00;3.40;;;;;;;17.55;49.40;98995.80;78138;1300;3050516;-61
2023/04/19 11:04:11;;;;;;;20.30;3.80;;;;;;;17.41;49.54;98999.94;78102;1299;3053089;-60
2023/04/19 11:06:52;;;;;;;16.60;3.00;;;;;;;17.28;49.70;99004.92;79359;1296;3012066;-60
2023/04/19 11:09:26;;;;;;;19.30;3.20;;;;;;;17.27;49.89;99011.91;80677;1295;3070768;-61
2023/04/19 11:11:53;;;;;;;24.30;3.60;;;;;;;17.20;50.27;99011.36;82002;1295;3011480;-64
2023/04/19 11:14:20;;;;;;;24.80;3.60;;;;;;;17.11;50.37;99016.82;78076;1298;3056404;-60
2023/04/19 11:16:47;;;;;;;23.00;3.00;;;;;;;17.07;50.54;99013.63;79261;1298;3013121;-61